sensor_id;sensor_type;location;lat;lon;timestamp;P1;durP1;ratioP1;P2;durP2;ratioP2
261;SDS011;114;48.260;10.988;2022-11-30T00:00:18;43.43;;;27.60;;
261;SDS011;114;48.260;10.988;2022-11-30T00:02:45;49.87;;;29.53;;
261;SDS011;114;48.260;10.988;2022-11-30T00:05:13;45.53;;;28.77;;
261;SDS011;114;48.260;10.988;2022-11-30T00:07:39;45.13;;;28.43;;
261;SDS011;114;48.260;10.988;2022-11-30T00:10:06;47.03;;;27.23;;
261;SDS011;114;48.260;10.988;2022-11-30T00:12:32;50.60;;;29.77;;
261;SDS011;114;48.260;10.988;2022-11-30T00:14:58;48.17;;;29.03;;
261;SDS011;114;48.260;10.988;2022-11-30T00:17:24;46.33;;;28.93;;
261;SDS011;114;48.260;10.988;2022-11-30T00:19:49;49.77;;;29.80;;
261;SDS011;114;48.260;10.988;2022-11-30T00:22:15;54.17;;;31.43;;
261;SDS011;114;48.260;10.988;2022-11-30T00:24:41;55.97;;;32.20;;
261;SDS011;114;48.260;10.988;2022-11-30T00:27:07;50.70;;;30.50;;
261;SDS011;114;48.260;10.988;2022-11-30T00:29:33;48.43;;;28.67;;
261;SDS011;114;48.260;10.988;2022-11-30T00:31:59;56.37;;;30.27;;
261;SDS011;114;48.260;10.988;2022-11-30T00:34:24;57.10;;;31.07;;
261;SDS011;114;48.260;10.988;2022-11-30T00:36:50;50.73;;;28.20;;
261;SDS011;114;48.260;10.988;2022-11-30T00:39:17;50.20;;;30.43;;
261;SDS011;114;48.260;10.988;2022-11-30T00:41:43;60.93;;;31.30;;
261;SDS011;114;48.260;10.988;2022-11-30T00:44:09;53.43;;;31.23;;
261;SDS011;114;48.260;10.988;2022-11-30T00:46:35;58.47;;;31.03;;
261;SDS011;114;48.260;10.988;2022-11-30T00:49:02;63.40;;;32.37;;
261;SDS011;114;48.260;10.988;2022-11-30T00:51:28;55.17;;;31.60;;
261;SDS011;114;48.260;10.988;2022-11-30T00:53:53;64.10;;;34.40;;
261;SDS011;114;48.260;10.988;2022-11-30T00:56:19;66.93;;;34.93;;
261;SDS011;114;48.260;10.988;2022-11-30T00:58:45;57.73;;;32.70;;
261;SDS011;114;48.260;10.988;2022-11-30T01:01:12;56.40;;;31.90;;
261;SDS011;114;48.260;10.988;2022-11-30T01:03:38;67.67;;;33.77;;
261;SDS011;114;48.260;10.988;2022-11-30T01:06:04;63.00;;;33.00;;
261;SDS011;114;48.260;10.988;2022-11-30T01:08:33;57.97;;;31.33;;
261;SDS011;114;48.260;10.988;2022-11-30T01:11:06;56.70;;;32.10;;
261;SDS011;114;48.260;10.988;2022-11-30T01:13:35;56.00;;;30.37;;
261;SDS011;114;48.260;10.988;2022-11-30T01:16:06;55.57;;;30.60;;
261;SDS011;114;48.260;10.988;2022-11-30T01:18:39;63.40;;;34.80;;
261;SDS011;114;48.260;10.988;2022-11-30T01:21:05;56.40;;;31.23;;
261;SDS011;114;48.260;10.988;2022-11-30T01:23:32;54.30;;;31.50;;
261;SDS011;114;48.260;10.988;2022-11-30T01:25:59;58.53;;;34.87;;
261;SDS011;114;48.260;10.988;2022-11-30T01:28:25;54.73;;;32.03;;
261;SDS011;114;48.260;10.988;2022-11-30T01:33:23;50.70;;;30.17;;
261;SDS011;114;48.260;10.988;2022-11-30T01:35:56;56.20;;;33.53;;
261;SDS011;114;48.260;10.988;2022-11-30T01:38:50;57.23;;;33.30;;
261;SDS011;114;48.260;10.988;2022-11-30T01:41:18;59.87;;;33.37;;
261;SDS011;114;48.260;10.988;2022-11-30T01:43:51;53.73;;;32.63;;
261;SDS011;114;48.260;10.988;2022-11-30T01:46:26;54.03;;;31.90;;
261;SDS011;114;48.260;10.988;2022-11-30T01:48:57;60.40;;;33.87;;
261;SDS011;114;48.260;10.988;2022-11-30T01:51:32;62.60;;;34.60;;
261;SDS011;114;48.260;10.988;2022-11-30T01:54:20;60.33;;;33.23;;
261;SDS011;114;48.260;10.988;2022-11-30T01:56:59;58.77;;;32.97;;
261;SDS011;114;48.260;10.988;2022-11-30T01:59:31;57.40;;;31.80;;
261;SDS011;114;48.260;10.988;2022-11-30T02:01:57;57.23;;;32.10;;
261;SDS011;114;48.260;10.988;2022-11-30T02:04:28;60.27;;;32.90;;
261;SDS011;114;48.260;10.988;2022-11-30T02:06:56;55.10;;;31.30;;
261;SDS011;114;48.260;10.988;2022-11-30T02:09:24;59.80;;;33.00;;
261;SDS011;114;48.260;10.988;2022-11-30T02:11:51;61.47;;;33.17;;
261;SDS011;114;48.260;10.988;2022-11-30T02:14:29;61.30;;;32.83;;
261;SDS011;114;48.260;10.988;2022-11-30T02:19:59;68.90;;;36.30;;
261;SDS011;114;48.260;10.988;2022-11-30T02:22:48;67.40;;;34.83;;
261;SDS011;114;48.260;10.988;2022-11-30T02:28:46;68.33;;;35.10;;
261;SDS011;114;48.260;10.988;2022-11-30T02:31:17;67.13;;;34.80;;
261;SDS011;114;48.260;10.988;2022-11-30T02:33:47;70.80;;;34.00;;
261;SDS011;114;48.260;10.988;2022-11-30T02:36:15;74.47;;;38.10;;
261;SDS011;114;48.260;10.988;2022-11-30T02:38:41;63.30;;;33.90;;
261;SDS011;114;48.260;10.988;2022-11-30T02:41:07;57.40;;;31.13;;
261;SDS011;114;48.260;10.988;2022-11-30T02:43:33;62.50;;;32.57;;
261;SDS011;114;48.260;10.988;2022-11-30T02:46:08;57.70;;;30.60;;
261;SDS011;114;48.260;10.988;2022-11-30T02:51:43;58.03;;;29.60;;
261;SDS011;114;48.260;10.988;2022-11-30T02:54:12;55.93;;;30.03;;
261;SDS011;114;48.260;10.988;2022-11-30T02:56:38;53.87;;;29.70;;
261;SDS011;114;48.260;10.988;2022-11-30T02:59:03;49.40;;;27.60;;
261;SDS011;114;48.260;10.988;2022-11-30T03:01:29;48.93;;;26.87;;
261;SDS011;114;48.260;10.988;2022-11-30T03:03:56;54.50;;;26.57;;
261;SDS011;114;48.260;10.988;2022-11-30T03:06:22;44.73;;;24.33;;
261;SDS011;114;48.260;10.988;2022-11-30T03:08:47;41.67;;;24.37;;
261;SDS011;114;48.260;10.988;2022-11-30T03:11:13;46.03;;;25.27;;
261;SDS011;114;48.260;10.988;2022-11-30T03:13:41;42.90;;;23.80;;
261;SDS011;114;48.260;10.988;2022-11-30T03:16:08;50.37;;;25.40;;
261;SDS011;114;48.260;10.988;2022-11-30T03:18:36;42.03;;;24.90;;
261;SDS011;114;48.260;10.988;2022-11-30T03:21:07;55.50;;;27.40;;
261;SDS011;114;48.260;10.988;2022-11-30T03:23:35;47.30;;;23.23;;
261;SDS011;114;48.260;10.988;2022-11-30T03:26:02;47.43;;;25.00;;
261;SDS011;114;48.260;10.988;2022-11-30T03:28:30;56.50;;;26.97;;
261;SDS011;114;48.260;10.988;2022-11-30T03:30:56;50.50;;;25.47;;
261;SDS011;114;48.260;10.988;2022-11-30T03:33:22;53.80;;;26.20;;
261;SDS011;114;48.260;10.988;2022-11-30T03:35:56;53.23;;;26.10;;
261;SDS011;114;48.260;10.988;2022-11-30T03:38:30;47.20;;;24.63;;
261;SDS011;114;48.260;10.988;2022-11-30T03:41:07;49.53;;;25.20;;
261;SDS011;114;48.260;10.988;2022-11-30T03:43:43;52.33;;;26.70;;
261;SDS011;114;48.260;10.988;2022-11-30T03:46:10;47.20;;;23.90;;
261;SDS011;114;48.260;10.988;2022-11-30T03:48:37;56.67;;;26.10;;
261;SDS011;114;48.260;10.988;2022-11-30T03:51:05;51.37;;;26.83;;
261;SDS011;114;48.260;10.988;2022-11-30T03:53:32;58.37;;;28.40;;
261;SDS011;114;48.260;10.988;2022-11-30T03:56:00;52.67;;;27.57;;
261;SDS011;114;48.260;10.988;2022-11-30T03:58:29;53.13;;;27.60;;
261;SDS011;114;48.260;10.988;2022-11-30T04:01:03;56.10;;;27.53;;
261;SDS011;114;48.260;10.988;2022-11-30T04:03:29;52.07;;;28.83;;
261;SDS011;114;48.260;10.988;2022-11-30T04:05:55;58.03;;;28.20;;
261;SDS011;114;48.260;10.988;2022-11-30T04:08:21;57.73;;;27.40;;
261;SDS011;114;48.260;10.988;2022-11-30T04:10:52;61.73;;;29.60;;
261;SDS011;114;48.260;10.988;2022-11-30T04:13:19;58.50;;;30.30;;
261;SDS011;114;48.260;10.988;2022-11-30T04:15:46;65.30;;;31.20;;
261;SDS011;114;48.260;10.988;2022-11-30T04:18:13;64.10;;;30.70;;
261;SDS011;114;48.260;10.988;2022-11-30T04:20:41;63.17;;;30.53;;
261;SDS011;114;48.260;10.988;2022-11-30T04:23:08;62.20;;;30.17;;
261;SDS011;114;48.260;10.988;2022-11-30T04:25:38;61.90;;;28.50;;
261;SDS011;114;48.260;10.988;2022-11-30T04:28:04;57.23;;;28.03;;
261;SDS011;114;48.260;10.988;2022-11-30T04:30:31;63.57;;;30.60;;
261;SDS011;114;48.260;10.988;2022-11-30T04:32:57;56.83;;;29.10;;
261;SDS011;114;48.260;10.988;2022-11-30T04:35:24;55.27;;;28.70;;
261;SDS011;114;48.260;10.988;2022-11-30T04:37:50;60.13;;;29.50;;
261;SDS011;114;48.260;10.988;2022-11-30T04:40:15;54.80;;;30.33;;
261;SDS011;114;48.260;10.988;2022-11-30T04:45:11;63.63;;;31.60;;
261;SDS011;114;48.260;10.988;2022-11-30T04:47:37;61.87;;;31.30;;
261;SDS011;114;48.260;10.988;2022-11-30T04:50:05;68.37;;;30.77;;
261;SDS011;114;48.260;10.988;2022-11-30T04:52:31;64.40;;;32.53;;
261;SDS011;114;48.260;10.988;2022-11-30T04:54:57;62.70;;;31.93;;
261;SDS011;114;48.260;10.988;2022-11-30T04:57:23;63.33;;;29.97;;
261;SDS011;114;48.260;10.988;2022-11-30T04:59:49;65.67;;;30.53;;
261;SDS011;114;48.260;10.988;2022-11-30T05:02:15;69.60;;;32.03;;
261;SDS011;114;48.260;10.988;2022-11-30T05:04:41;65.73;;;30.27;;
261;SDS011;114;48.260;10.988;2022-11-30T05:07:08;70.37;;;31.70;;
261;SDS011;114;48.260;10.988;2022-11-30T05:09:35;67.50;;;31.23;;
261;SDS011;114;48.260;10.988;2022-11-30T05:12:01;67.47;;;30.33;;
261;SDS011;114;48.260;10.988;2022-11-30T05:14:27;69.40;;;32.13;;
261;SDS011;114;48.260;10.988;2022-11-30T05:16:52;57.73;;;29.67;;
261;SDS011;114;48.260;10.988;2022-11-30T05:19:19;69.93;;;31.57;;
261;SDS011;114;48.260;10.988;2022-11-30T05:21:47;72.40;;;32.93;;
261;SDS011;114;48.260;10.988;2022-11-30T05:24:14;60.10;;;30.70;;
261;SDS011;114;48.260;10.988;2022-11-30T05:26:39;66.70;;;31.50;;
261;SDS011;114;48.260;10.988;2022-11-30T05:29:05;58.37;;;30.03;;
261;SDS011;114;48.260;10.988;2022-11-30T05:31:31;64.63;;;31.30;;
261;SDS011;114;48.260;10.988;2022-11-30T05:33:58;68.30;;;31.60;;
261;SDS011;114;48.260;10.988;2022-11-30T05:36:24;65.10;;;29.33;;
261;SDS011;114;48.260;10.988;2022-11-30T05:38:52;52.97;;;28.30;;
261;SDS011;114;48.260;10.988;2022-11-30T05:41:18;61.20;;;28.63;;
261;SDS011;114;48.260;10.988;2022-11-30T05:43:44;54.93;;;28.33;;
261;SDS011;114;48.260;10.988;2022-11-30T05:46:09;64.57;;;28.93;;
261;SDS011;114;48.260;10.988;2022-11-30T05:48:36;57.03;;;27.57;;
261;SDS011;114;48.260;10.988;2022-11-30T05:51:09;52.80;;;27.30;;
261;SDS011;114;48.260;10.988;2022-11-30T05:53:36;51.40;;;25.77;;
261;SDS011;114;48.260;10.988;2022-11-30T05:56:06;47.33;;;23.97;;
261;SDS011;114;48.260;10.988;2022-11-30T05:58:35;49.63;;;25.73;;
261;SDS011;114;48.260;10.988;2022-11-30T06:01:02;42.67;;;24.60;;
261;SDS011;114;48.260;10.988;2022-11-30T06:03:29;46.37;;;25.23;;
261;SDS011;114;48.260;10.988;2022-11-30T06:06:02;44.83;;;25.43;;
261;SDS011;114;48.260;10.988;2022-11-30T06:08:28;49.77;;;24.50;;
261;SDS011;114;48.260;10.988;2022-11-30T06:10:58;48.47;;;26.07;;
261;SDS011;114;48.260;10.988;2022-11-30T06:13:25;47.20;;;24.00;;
261;SDS011;114;48.260;10.988;2022-11-30T06:15:51;39.43;;;22.03;;
261;SDS011;114;48.260;10.988;2022-11-30T06:18:18;45.83;;;23.70;;
261;SDS011;114;48.260;10.988;2022-11-30T06:20:45;44.07;;;25.17;;
261;SDS011;114;48.260;10.988;2022-11-30T06:23:11;48.17;;;24.47;;
261;SDS011;114;48.260;10.988;2022-11-30T06:25:37;48.47;;;24.63;;
261;SDS011;114;48.260;10.988;2022-11-30T06:28:02;41.20;;;24.60;;
261;SDS011;114;48.260;10.988;2022-11-30T06:30:32;44.17;;;22.67;;
261;SDS011;114;48.260;10.988;2022-11-30T06:32:57;49.73;;;24.97;;
261;SDS011;114;48.260;10.988;2022-11-30T06:35:24;35.93;;;20.83;;
261;SDS011;114;48.260;10.988;2022-11-30T06:37:50;42.03;;;22.53;;
261;SDS011;114;48.260;10.988;2022-11-30T06:40:16;44.23;;;21.70;;
261;SDS011;114;48.260;10.988;2022-11-30T06:42:41;43.40;;;23.83;;
261;SDS011;114;48.260;10.988;2022-11-30T06:45:07;44.47;;;22.97;;
261;SDS011;114;48.260;10.988;2022-11-30T06:47:35;42.47;;;22.13;;
261;SDS011;114;48.260;10.988;2022-11-30T06:50:01;43.90;;;23.90;;
261;SDS011;114;48.260;10.988;2022-11-30T06:52:30;44.70;;;25.07;;
261;SDS011;114;48.260;10.988;2022-11-30T06:54:56;41.83;;;23.27;;
261;SDS011;114;48.260;10.988;2022-11-30T06:57:26;40.37;;;21.63;;
261;SDS011;114;48.260;10.988;2022-11-30T06:59:54;41.37;;;21.10;;
261;SDS011;114;48.260;10.988;2022-11-30T07:02:23;38.10;;;21.37;;
261;SDS011;114;48.260;10.988;2022-11-30T07:04:48;39.90;;;20.47;;
261;SDS011;114;48.260;10.988;2022-11-30T07:07:14;37.07;;;21.40;;
261;SDS011;114;48.260;10.988;2022-11-30T07:09:40;36.23;;;21.07;;
261;SDS011;114;48.260;10.988;2022-11-30T07:12:06;39.10;;;21.80;;
261;SDS011;114;48.260;10.988;2022-11-30T07:14:32;40.30;;;22.37;;
261;SDS011;114;48.260;10.988;2022-11-30T07:16:58;39.10;;;21.70;;
261;SDS011;114;48.260;10.988;2022-11-30T07:19:29;43.97;;;22.70;;
261;SDS011;114;48.260;10.988;2022-11-30T07:21:55;35.97;;;21.47;;
261;SDS011;114;48.260;10.988;2022-11-30T07:24:21;35.70;;;20.80;;
261;SDS011;114;48.260;10.988;2022-11-30T07:27:06;35.43;;;21.03;;
261;SDS011;114;48.260;10.988;2022-11-30T07:29:31;38.30;;;22.33;;
261;SDS011;114;48.260;10.988;2022-11-30T07:31:57;37.10;;;21.13;;
261;SDS011;114;48.260;10.988;2022-11-30T07:34:23;35.13;;;20.90;;
261;SDS011;114;48.260;10.988;2022-11-30T07:36:50;37.70;;;21.37;;
261;SDS011;114;48.260;10.988;2022-11-30T07:39:15;34.13;;;20.90;;
261;SDS011;114;48.260;10.988;2022-11-30T07:41:41;39.73;;;20.77;;
261;SDS011;114;48.260;10.988;2022-11-30T07:44:07;38.50;;;21.00;;
261;SDS011;114;48.260;10.988;2022-11-30T07:46:35;32.33;;;20.40;;
261;SDS011;114;48.260;10.988;2022-11-30T07:49:02;35.40;;;21.33;;
261;SDS011;114;48.260;10.988;2022-11-30T07:51:34;31.70;;;20.50;;
261;SDS011;114;48.260;10.988;2022-11-30T07:53:59;31.73;;;19.63;;
261;SDS011;114;48.260;10.988;2022-11-30T07:56:26;30.57;;;17.77;;
261;SDS011;114;48.260;10.988;2022-11-30T07:58:53;29.20;;;18.00;;
261;SDS011;114;48.260;10.988;2022-11-30T08:01:25;29.60;;;18.83;;
261;SDS011;114;48.260;10.988;2022-11-30T08:03:52;29.07;;;17.90;;
261;SDS011;114;48.260;10.988;2022-11-30T08:06:19;27.07;;;17.77;;
261;SDS011;114;48.260;10.988;2022-11-30T08:08:50;28.10;;;17.10;;
261;SDS011;114;48.260;10.988;2022-11-30T08:11:18;25.87;;;16.70;;
261;SDS011;114;48.260;10.988;2022-11-30T08:13:45;22.87;;;15.03;;
261;SDS011;114;48.260;10.988;2022-11-30T08:16:15;24.40;;;15.80;;
261;SDS011;114;48.260;10.988;2022-11-30T08:18:42;29.07;;;18.10;;
261;SDS011;114;48.260;10.988;2022-11-30T08:21:11;25.03;;;14.93;;
261;SDS011;114;48.260;10.988;2022-11-30T08:23:39;27.03;;;16.30;;
261;SDS011;114;48.260;10.988;2022-11-30T08:26:16;24.73;;;15.37;;
261;SDS011;114;48.260;10.988;2022-11-30T08:28:44;30.43;;;15.57;;
261;SDS011;114;48.260;10.988;2022-11-30T08:31:16;22.43;;;15.10;;
261;SDS011;114;48.260;10.988;2022-11-30T08:33:45;14.87;;;9.70;;
261;SDS011;114;48.260;10.988;2022-11-30T08:36:18;21.83;;;13.67;;
261;SDS011;114;48.260;10.988;2022-11-30T08:38:46;16.83;;;12.03;;
261;SDS011;114;48.260;10.988;2022-11-30T08:41:14;14.77;;;11.30;;
261;SDS011;114;48.260;10.988;2022-11-30T08:43:42;21.30;;;13.27;;
261;SDS011;114;48.260;10.988;2022-11-30T08:46:08;16.83;;;11.67;;
261;SDS011;114;48.260;10.988;2022-11-30T08:48:37;17.00;;;11.40;;
261;SDS011;114;48.260;10.988;2022-11-30T08:51:03;17.60;;;11.60;;
261;SDS011;114;48.260;10.988;2022-11-30T08:53:32;18.90;;;13.37;;
261;SDS011;114;48.260;10.988;2022-11-30T08:55:59;19.70;;;13.60;;
261;SDS011;114;48.260;10.988;2022-11-30T08:58:28;20.27;;;14.47;;
261;SDS011;114;48.260;10.988;2022-11-30T09:03:36;15.93;;;11.70;;
261;SDS011;114;48.260;10.988;2022-11-30T09:06:03;22.47;;;13.70;;
261;SDS011;114;48.260;10.988;2022-11-30T09:08:39;18.83;;;13.47;;
261;SDS011;114;48.260;10.988;2022-11-30T09:11:12;18.43;;;13.27;;
261;SDS011;114;48.260;10.988;2022-11-30T09:13:41;22.37;;;15.00;;
261;SDS011;114;48.260;10.988;2022-11-30T09:16:08;23.47;;;14.87;;
261;SDS011;114;48.260;10.988;2022-11-30T09:18:34;23.37;;;14.77;;
261;SDS011;114;48.260;10.988;2022-11-30T09:21:00;23.27;;;14.77;;
261;SDS011;114;48.260;10.988;2022-11-30T09:23:28;20.93;;;14.33;;
261;SDS011;114;48.260;10.988;2022-11-30T09:25:55;20.30;;;13.50;;
261;SDS011;114;48.260;10.988;2022-11-30T09:28:24;19.80;;;13.57;;
261;SDS011;114;48.260;10.988;2022-11-30T09:30:52;24.70;;;16.33;;
261;SDS011;114;48.260;10.988;2022-11-30T09:33:18;20.53;;;14.60;;
261;SDS011;114;48.260;10.988;2022-11-30T09:35:44;27.70;;;16.20;;
261;SDS011;114;48.260;10.988;2022-11-30T09:38:22;22.47;;;15.00;;
261;SDS011;114;48.260;10.988;2022-11-30T09:40:53;20.20;;;13.03;;
261;SDS011;114;48.260;10.988;2022-11-30T09:46:11;22.10;;;13.90;;
261;SDS011;114;48.260;10.988;2022-11-30T09:49:00;19.87;;;13.23;;
261;SDS011;114;48.260;10.988;2022-11-30T09:51:42;23.93;;;15.40;;
261;SDS011;114;48.260;10.988;2022-11-30T09:54:52;20.73;;;13.17;;
261;SDS011;114;48.260;10.988;2022-11-30T09:57:48;20.90;;;14.43;;
261;SDS011;114;48.260;10.988;2022-11-30T10:02:47;24.80;;;14.77;;
261;SDS011;114;48.260;10.988;2022-11-30T10:07:58;23.87;;;15.63;;
261;SDS011;114;48.260;10.988;2022-11-30T10:11:25;26.80;;;17.07;;
261;SDS011;114;48.260;10.988;2022-11-30T10:16:25;25.87;;;16.37;;
261;SDS011;114;48.260;10.988;2022-11-30T10:19:28;24.67;;;15.77;;
261;SDS011;114;48.260;10.988;2022-11-30T10:28:14;25.53;;;16.40;;
261;SDS011;114;48.260;10.988;2022-11-30T10:30:40;28.17;;;16.57;;
261;SDS011;114;48.260;10.988;2022-11-30T10:33:26;24.10;;;15.83;;
261;SDS011;114;48.260;10.988;2022-11-30T10:36:09;29.23;;;17.30;;
261;SDS011;114;48.260;10.988;2022-11-30T10:38:49;23.50;;;14.90;;
261;SDS011;114;48.260;10.988;2022-11-30T10:41:23;24.00;;;15.20;;
261;SDS011;114;48.260;10.988;2022-11-30T10:43:58;22.50;;;14.87;;
261;SDS011;114;48.260;10.988;2022-11-30T10:46:37;18.53;;;12.90;;
261;SDS011;114;48.260;10.988;2022-11-30T10:49:11;16.17;;;11.17;;
261;SDS011;114;48.260;10.988;2022-11-30T10:51:41;14.30;;;9.30;;
261;SDS011;114;48.260;10.988;2022-11-30T10:54:12;18.80;;;11.90;;
261;SDS011;114;48.260;10.988;2022-11-30T10:56:40;15.37;;;12.00;;
261;SDS011;114;48.260;10.988;2022-11-30T10:59:15;19.43;;;12.87;;
261;SDS011;114;48.260;10.988;2022-11-30T11:01:52;17.43;;;12.60;;
261;SDS011;114;48.260;10.988;2022-11-30T11:04:19;16.10;;;11.07;;
261;SDS011;114;48.260;10.988;2022-11-30T11:06:48;11.37;;;9.90;;
261;SDS011;114;48.260;10.988;2022-11-30T11:09:37;12.40;;;9.30;;
261;SDS011;114;48.260;10.988;2022-11-30T11:12:14;11.60;;;9.43;;
261;SDS011;114;48.260;10.988;2022-11-30T11:14:43;13.77;;;9.97;;
261;SDS011;114;48.260;10.988;2022-11-30T11:19:45;16.43;;;10.30;;
261;SDS011;114;48.260;10.988;2022-11-30T11:22:21;11.03;;;9.40;;
261;SDS011;114;48.260;10.988;2022-11-30T11:27:51;15.40;;;11.23;;
261;SDS011;114;48.260;10.988;2022-11-30T11:30:27;15.00;;;11.40;;
261;SDS011;114;48.260;10.988;2022-11-30T11:33:02;18.93;;;11.70;;
261;SDS011;114;48.260;10.988;2022-11-30T11:35:47;17.60;;;11.43;;
261;SDS011;114;48.260;10.988;2022-11-30T11:38:28;17.90;;;12.97;;
261;SDS011;114;48.260;10.988;2022-11-30T11:41:29;12.97;;;10.23;;
261;SDS011;114;48.260;10.988;2022-11-30T11:46:51;13.07;;;10.43;;
261;SDS011;114;48.260;10.988;2022-11-30T11:49:25;14.53;;;11.43;;
261;SDS011;114;48.260;10.988;2022-11-30T11:54:40;15.27;;;10.20;;
261;SDS011;114;48.260;10.988;2022-11-30T11:57:07;12.20;;;9.80;;
261;SDS011;114;48.260;10.988;2022-11-30T11:59:52;15.30;;;11.53;;
261;SDS011;114;48.260;10.988;2022-11-30T12:02:36;14.43;;;10.77;;
261;SDS011;114;48.260;10.988;2022-11-30T12:05:14;15.33;;;10.40;;
261;SDS011;114;48.260;10.988;2022-11-30T12:13:07;13.50;;;10.27;;
261;SDS011;114;48.260;10.988;2022-11-30T12:18:20;14.47;;;9.63;;
261;SDS011;114;48.260;10.988;2022-11-30T12:32:15;16.53;;;10.33;;
261;SDS011;114;48.260;10.988;2022-11-30T12:40:25;13.90;;;9.93;;
261;SDS011;114;48.260;10.988;2022-11-30T12:43:16;13.93;;;10.23;;
261;SDS011;114;48.260;10.988;2022-11-30T12:49:14;14.83;;;10.90;;
261;SDS011;114;48.260;10.988;2022-11-30T12:51:51;15.37;;;10.57;;
261;SDS011;114;48.260;10.988;2022-11-30T12:54:31;15.50;;;10.73;;
261;SDS011;114;48.260;10.988;2022-11-30T12:57:18;14.10;;;10.20;;
261;SDS011;114;48.260;10.988;2022-11-30T13:03:13;17.67;;;11.70;;
261;SDS011;114;48.260;10.988;2022-11-30T13:11:16;19.60;;;13.17;;
261;SDS011;114;48.260;10.988;2022-11-30T13:13:55;17.93;;;12.47;;
261;SDS011;114;48.260;10.988;2022-11-30T13:16:24;15.77;;;11.77;;
261;SDS011;114;48.260;10.988;2022-11-30T13:18:55;17.93;;;11.70;;
261;SDS011;114;48.260;10.988;2022-11-30T13:24:07;16.20;;;12.50;;
261;SDS011;114;48.260;10.988;2022-11-30T13:29:19;18.67;;;13.63;;
261;SDS011;114;48.260;10.988;2022-11-30T13:34:33;19.03;;;13.07;;
261;SDS011;114;48.260;10.988;2022-11-30T13:37:04;17.77;;;12.83;;
261;SDS011;114;48.260;10.988;2022-11-30T13:47:50;19.63;;;13.03;;
261;SDS011;114;48.260;10.988;2022-11-30T13:50:38;19.80;;;12.90;;
261;SDS011;114;48.260;10.988;2022-11-30T13:53:05;21.10;;;12.90;;
261;SDS011;114;48.260;10.988;2022-11-30T13:58:29;21.20;;;13.60;;
261;SDS011;114;48.260;10.988;2022-11-30T14:06:44;15.30;;;12.27;;
261;SDS011;114;48.260;10.988;2022-11-30T14:15:03;18.20;;;12.73;;
261;SDS011;114;48.260;10.988;2022-11-30T14:17:50;16.93;;;12.77;;
261;SDS011;114;48.260;10.988;2022-11-30T14:20:22;17.50;;;13.43;;
261;SDS011;114;48.260;10.988;2022-11-30T14:22:51;18.47;;;13.27;;
261;SDS011;114;48.260;10.988;2022-11-30T14:25:20;18.83;;;13.60;;
261;SDS011;114;48.260;10.988;2022-11-30T14:27:47;16.60;;;12.63;;
261;SDS011;114;48.260;10.988;2022-11-30T14:30:21;17.63;;;11.60;;
261;SDS011;114;48.260;10.988;2022-11-30T14:32:50;18.37;;;12.67;;
261;SDS011;114;48.260;10.988;2022-11-30T14:35:31;19.37;;;13.20;;
261;SDS011;114;48.260;10.988;2022-11-30T14:37:58;14.67;;;11.67;;
261;SDS011;114;48.260;10.988;2022-11-30T14:40:26;16.23;;;11.70;;
261;SDS011;114;48.260;10.988;2022-11-30T14:42:59;18.07;;;13.50;;
261;SDS011;114;48.260;10.988;2022-11-30T14:45:30;17.23;;;12.80;;
261;SDS011;114;48.260;10.988;2022-11-30T14:50:41;14.27;;;11.60;;
261;SDS011;114;48.260;10.988;2022-11-30T14:53:20;17.83;;;12.60;;
261;SDS011;114;48.260;10.988;2022-11-30T14:58:58;21.03;;;14.80;;
261;SDS011;114;48.260;10.988;2022-11-30T15:01:58;17.37;;;13.60;;
261;SDS011;114;48.260;10.988;2022-11-30T15:04:27;18.93;;;14.50;;
261;SDS011;114;48.260;10.988;2022-11-30T15:06:55;16.53;;;12.30;;
261;SDS011;114;48.260;10.988;2022-11-30T15:09:27;17.90;;;14.47;;
261;SDS011;114;48.260;10.988;2022-11-30T15:11:55;19.10;;;14.07;;
261;SDS011;114;48.260;10.988;2022-11-30T15:14:21;17.70;;;13.97;;
261;SDS011;114;48.260;10.988;2022-11-30T15:16:55;22.10;;;13.03;;
261;SDS011;114;48.260;10.988;2022-11-30T15:19:29;20.03;;;14.27;;
261;SDS011;114;48.260;10.988;2022-11-30T15:21:59;21.03;;;13.83;;
261;SDS011;114;48.260;10.988;2022-11-30T15:24:25;20.30;;;14.20;;
261;SDS011;114;48.260;10.988;2022-11-30T15:29:23;19.93;;;13.67;;
261;SDS011;114;48.260;10.988;2022-11-30T15:31:53;19.80;;;13.33;;
261;SDS011;114;48.260;10.988;2022-11-30T15:37:14;19.50;;;13.37;;
261;SDS011;114;48.260;10.988;2022-11-30T15:39:46;20.07;;;14.17;;
261;SDS011;114;48.260;10.988;2022-11-30T15:42:19;23.27;;;15.60;;
261;SDS011;114;48.260;10.988;2022-11-30T15:44:55;25.40;;;16.73;;
261;SDS011;114;48.260;10.988;2022-11-30T15:47:53;23.23;;;15.70;;
261;SDS011;114;48.260;10.988;2022-11-30T15:52:54;24.70;;;14.13;;
261;SDS011;114;48.260;10.988;2022-11-30T15:55:41;18.40;;;13.77;;
261;SDS011;114;48.260;10.988;2022-11-30T15:58:28;19.73;;;14.60;;
261;SDS011;114;48.260;10.988;2022-11-30T16:01:21;27.43;;;16.23;;
261;SDS011;114;48.260;10.988;2022-11-30T16:04:04;20.23;;;15.63;;
261;SDS011;114;48.260;10.988;2022-11-30T16:06:42;22.90;;;15.20;;
261;SDS011;114;48.260;10.988;2022-11-30T16:09:17;24.13;;;15.83;;
261;SDS011;114;48.260;10.988;2022-11-30T16:11:46;23.37;;;14.93;;
261;SDS011;114;48.260;10.988;2022-11-30T16:14:15;20.63;;;15.37;;
261;SDS011;114;48.260;10.988;2022-11-30T16:16:41;24.63;;;15.90;;
261;SDS011;114;48.260;10.988;2022-11-30T16:19:08;23.80;;;15.80;;
261;SDS011;114;48.260;10.988;2022-11-30T16:21:35;27.23;;;17.07;;
261;SDS011;114;48.260;10.988;2022-11-30T16:24:10;24.80;;;17.77;;
261;SDS011;114;48.260;10.988;2022-11-30T16:26:42;27.67;;;17.20;;
261;SDS011;114;48.260;10.988;2022-11-30T16:29:08;21.50;;;15.47;;
261;SDS011;114;48.260;10.988;2022-11-30T16:31:37;18.83;;;14.77;;
261;SDS011;114;48.260;10.988;2022-11-30T16:34:04;23.33;;;15.80;;
261;SDS011;114;48.260;10.988;2022-11-30T16:36:35;24.93;;;18.03;;
261;SDS011;114;48.260;10.988;2022-11-30T16:39:02;27.60;;;17.00;;
261;SDS011;114;48.260;10.988;2022-11-30T16:44:00;25.57;;;17.50;;
261;SDS011;114;48.260;10.988;2022-11-30T16:46:28;23.00;;;16.20;;
261;SDS011;114;48.260;10.988;2022-11-30T16:48:55;32.33;;;20.30;;
261;SDS011;114;48.260;10.988;2022-11-30T16:51:25;24.87;;;17.90;;
261;SDS011;114;48.260;10.988;2022-11-30T16:53:52;25.47;;;17.00;;
261;SDS011;114;48.260;10.988;2022-11-30T16:56:28;31.00;;;19.20;;
261;SDS011;114;48.260;10.988;2022-11-30T16:58:56;29.97;;;21.67;;
261;SDS011;114;48.260;10.988;2022-11-30T17:01:33;25.80;;;18.10;;
261;SDS011;114;48.260;10.988;2022-11-30T17:04:05;32.47;;;18.80;;
261;SDS011;114;48.260;10.988;2022-11-30T17:06:44;24.30;;;18.00;;
261;SDS011;114;48.260;10.988;2022-11-30T17:09:23;26.10;;;18.20;;
261;SDS011;114;48.260;10.988;2022-11-30T17:11:55;29.03;;;19.83;;
261;SDS011;114;48.260;10.988;2022-11-30T17:14:23;25.50;;;18.37;;
261;SDS011;114;48.260;10.988;2022-11-30T17:16:51;23.70;;;17.63;;
261;SDS011;114;48.260;10.988;2022-11-30T17:19:16;30.00;;;19.90;;
261;SDS011;114;48.260;10.988;2022-11-30T17:21:42;27.37;;;19.40;;
261;SDS011;114;48.260;10.988;2022-11-30T17:24:08;28.17;;;19.20;;
261;SDS011;114;48.260;10.988;2022-11-30T17:26:37;29.57;;;20.00;;
261;SDS011;114;48.260;10.988;2022-11-30T17:29:02;29.00;;;19.07;;
261;SDS011;114;48.260;10.988;2022-11-30T17:31:30;28.20;;;18.83;;